Cse Prosperity Expr. — 3EES5 — position and weather

sailwx.info

Track history (hours):
 
Tides and Currents Weather Stations Pressure Air Temp Water Temp Dewpoint Dewpoint Depression Visibility Wind Speed Wind Dir Waves Ship Positions

Cse Prosperity Expr.

Last reported at 2016-Jul-26 10:17 UTC. Time now 2016-Jul-28 18:20 UTC.
Position N 24°47' E 120°45'.

Length 168 m; draft 5.6 m.

Type: Wing in ground effect craft. MMSI: 371801000.

Date/timePositionNaut miles runAvg speedWind from/ knotsBaromVisibWave heightAir tempDewpointWater temp
2016-Jul-26 10:17N 24°47' E 120°45'1815.9
2016-Jul-26 09:10N 24°33' E 120°33'1015.3
2016-Jul-26 08:32N 24°26' E 120°27'1615.2
2016-Jul-26 07:31N 24°13' E 120°17'1515.3
2016-Jul-26 06:32N 24°01' E 120°08'7314.7
2016-Jul-26 01:33N 22°47' E 120°04'1313.0
2016-Jul-26 00:33N 22°38' E 120°13'4 4.5
2016-Jul-25 23:33N 22°36' E 120°18'0 0.1
2016-Jul-25 22:32N 22°36' E 120°18'0 0.0
2016-Jul-25 21:26N 22°36' E 120°18'0 0.0
2016-Jul-25 20:20N 22°36' E 120°18'0 0.0
2016-Jul-25 19:26N 22°36' E 120°18'0 0.0
2016-Jul-25 16:32N 22°36' E 120°18'0 0.0
2016-Jul-25 15:26N 22°36' E 120°18'0 0.0
2016-Jul-25 12:26N 22°36' E 120°18'0 0.0
2016-Jul-25 07:24N 22°36' E 120°18'0 0.0
2016-Jul-25 06:24N 22°36' E 120°18'0 0.1
2016-Jul-24 23:32N 22°36' E 120°18'5 4.9
2016-Jul-24 22:33N 22°37' E 120°12'0 0.1
2016-Jul-24 21:30N 22°37' E 120°12'0 0.1
2016-Jul-24 20:24N 22°37' E 120°12'0 0.1
2016-Jul-24 19:30N 22°37' E 120°12'0 0.0
2016-Jul-24 18:18N 22°37' E 120°12'0 0.1
2016-Jul-24 16:30N 22°37' E 120°12'0 0.0
2016-Jul-24 15:30N 22°37' E 120°12'0 0.0
2016-Jul-24 14:30N 22°37' E 120°12'0 0.1
2016-Jul-24 13:24N 22°37' E 120°13'0 0.0
2016-Jul-24 12:30N 22°37' E 120°13'0 0.0
2016-Jul-24 10:30N 22°37' E 120°13'0 0.0
2016-Jul-24 09:30N 22°37' E 120°13'0 0.1
2016-Jul-24 08:24N 22°37' E 120°12'0 0.1
2016-Jul-24 07:30N 22°37' E 120°13'0 0.2
2016-Jul-24 06:30N 22°37' E 120°12'0 0.1
2016-Jul-24 05:30N 22°37' E 120°12'0 0.0
2016-Jul-24 04:30N 22°37' E 120°12'0 0.1
2016-Jul-24 03:30N 22°37' E 120°12'0 0.0
2016-Jul-24 02:30N 22°37' E 120°12'3 3.3
2016-Jul-24 01:33N 22°39' E 120°10'6911.2
2016-Jul-23 19:25N 23°47' E 119°57'1011.3
2016-Jul-23 18:33N 23°55' E 120°03'1312.0
2016-Jul-23 17:31N 24°05' E 120°11'1110.9
2016-Jul-23 16:31N 24°14' E 120°18'1410.8
2016-Jul-23 15:12N 24°25' E 120°27'911.0
2016-Jul-23 14:22N 24°33' E 120°33'  
2016-Jul-20 00:10N 33°55' E 134°55'812.8
2016-Jul-19 23:30N 34°03' E 134°58'1111.2
2016-Jul-19 22:33N 34°13' E 135°03'4 3.5
2016-Jul-19 21:32N 34°14' E 135°07'0 0.0
2016-Jul-19 20:26N 34°14' E 135°07'0 0.0
2016-Jul-19 19:29N 34°14' E 135°07'0 0.0
2016-Jul-19 18:29N 34°14' E 135°07'0 0.0
2016-Jul-19 17:32N 34°14' E 135°07'0 0.0
2016-Jul-19 16:32N 34°14' E 135°07'0 0.0
2016-Jul-19 15:32N 34°14' E 135°07'0 0.0
2016-Jul-19 14:32N 34°14' E 135°07'0 0.0
2016-Jul-19 13:26N 34°14' E 135°07'0 0.0
2016-Jul-19 12:32N 34°14' E 135°07'0 0.0
2016-Jul-19 11:26N 34°14' E 135°07'0 0.0
2016-Jul-19 10:32N 34°14' E 135°07'0 0.0
2016-Jul-19 09:32N 34°14' E 135°07'0 0.0
2016-Jul-19 08:32N 34°14' E 135°07'0 0.0
2016-Jul-19 07:32N 34°14' E 135°07'0 0.0
2016-Jul-19 06:32N 34°14' E 135°07'0 0.0
2016-Jul-19 04:32N 34°14' E 135°07'0 0.0
2016-Jul-19 03:32N 34°14' E 135°07'0 0.0
2016-Jul-19 02:32N 34°14' E 135°07'0 0.0
2016-Jul-19 01:32N 34°14' E 135°07'0 0.0
2016-Jul-19 00:32N 34°14' E 135°07'0 0.0
2016-Jul-18 23:32N 34°14' E 135°07'0 0.0
2016-Jul-18 22:32N 34°14' E 135°07'0 0.0
2016-Jul-18 21:32N 34°14' E 135°07'0 0.0
2016-Jul-18 20:20N 34°14' E 135°07'0 0.0
2016-Jul-18 19:32N 34°14' E 135°07'0 0.0
2016-Jul-18 18:32N 34°14' E 135°07'0 0.0
2016-Jul-18 17:32N 34°14' E 135°07'0 0.0
2016-Jul-18 16:32N 34°14' E 135°07'0 0.0
2016-Jul-18 15:32N 34°14' E 135°07'0 0.0
2016-Jul-18 14:23N 34°14' E 135°07'0 0.0
2016-Jul-18 13:29N 34°14' E 135°07'0 0.0
2016-Jul-18 12:32N 34°14' E 135°07'0 0.0
2016-Jul-18 11:32N 34°14' E 135°07'0 0.0
2016-Jul-18 10:32N 34°14' E 135°07'0 0.0
2016-Jul-18 09:32N 34°14' E 135°07'0 0.0
2016-Jul-18 08:32N 34°14' E 135°07'0 0.0
2016-Jul-18 07:32N 34°14' E 135°07'0 0.0
2016-Jul-18 06:32N 34°14' E 135°07'0 0.0
2016-Jul-18 05:32N 34°14' E 135°07'0 0.0
2016-Jul-18 04:32N 34°14' E 135°07'0 0.0
2016-Jul-18 03:14N 34°14' E 135°07'0 0.0
2016-Jul-18 02:32N 34°14' E 135°07'0 0.0
2016-Jul-18 01:32N 34°14' E 135°07'0 0.0
2016-Jul-18 00:32N 34°14' E 135°07'0 0.0
2016-Jul-17 23:32N 34°14' E 135°07'0 0.0
2016-Jul-17 22:32N 34°14' E 135°07'0 0.0
2016-Jul-17 21:32N 34°14' E 135°07'0 0.0
2016-Jul-17 20:32N 34°14' E 135°07'0 0.0
2016-Jul-17 19:32N 34°14' E 135°07'0 0.0
2016-Jul-17 18:32N 34°14' E 135°07'0 0.0
2016-Jul-17 17:32N 34°14' E 135°07'0 0.0
2016-Jul-17 16:32N 34°14' E 135°07'0 0.0
2016-Jul-17 15:32N 34°14' E 135°07'0 0.0
2016-Jul-17 14:32N 34°14' E 135°07'0 0.0
2016-Jul-17 13:32N 34°14' E 135°07'0 0.0
2016-Jul-17 12:32N 34°14' E 135°07'0 0.0
2016-Jul-17 11:26N 34°14' E 135°07'0 0.0
2016-Jul-17 10:32N 34°14' E 135°07'0 0.0
2016-Jul-17 09:32N 34°14' E 135°07'0 0.0
2016-Jul-17 08:32N 34°14' E 135°07'0 0.0
2016-Jul-17 07:26N 34°14' E 135°07'0 0.0
2016-Jul-17 06:32N 34°14' E 135°07'0 0.0
2016-Jul-17 04:32N 34°14' E 135°07'0 0.0
2016-Jul-17 03:29N 34°14' E 135°07'0 0.0
2016-Jul-17 02:32N 34°14' E 135°07'0 0.0
2016-Jul-17 01:32N 34°14' E 135°07'0 0.0
2016-Jul-17 00:32N 34°14' E 135°07'0 0.0
2016-Jul-16 23:29N 34°14' E 135°07'2 2.6
2016-Jul-16 22:34N 34°13' E 135°05'9 9.3
2016-Jul-16 21:34N 34°05' E 135°01'  
Track history (hours):
 
Tides and Currents Weather Stations Pressure Air Temp Water Temp Dewpoint Dewpoint Depression Visibility Wind Speed Wind Dir Waves Ship Positions

Cse Prosperity Expr.

Last reported at 2016-Jul-26 10:17 UTC. Time now 2016-Jul-28 18:20 UTC.
Position N 24°47' E 120°45'.

Length 168 m; draft 5.6 m.

Type: Wing in ground effect craft. MMSI: 371801000.

Date/timePositionNaut miles runAvg speedWind from/ knotsBaromVisibWave heightAir tempDewpointWater temp
2016-Jul-26 10:17N 24°47' E 120°45'1815.9
2016-Jul-26 09:10N 24°33' E 120°33'1015.3
2016-Jul-26 08:32N 24°26' E 120°27'1615.2
2016-Jul-26 07:31N 24°13' E 120°17'1515.3
2016-Jul-26 06:32N 24°01' E 120°08'7314.7
2016-Jul-26 01:33N 22°47' E 120°04'1313.0
2016-Jul-26 00:33N 22°38' E 120°13'4 4.5
2016-Jul-25 23:33N 22°36' E 120°18'0 0.1
2016-Jul-25 22:32N 22°36' E 120°18'0 0.0
2016-Jul-25 21:26N 22°36' E 120°18'0 0.0
2016-Jul-25 20:20N 22°36' E 120°18'0 0.0
2016-Jul-25 19:26N 22°36' E 120°18'0 0.0
2016-Jul-25 16:32N 22°36' E 120°18'0 0.0
2016-Jul-25 15:26N 22°36' E 120°18'0 0.0
2016-Jul-25 12:26N 22°36' E 120°18'0 0.0
2016-Jul-25 07:24N 22°36' E 120°18'0 0.0
2016-Jul-25 06:24N 22°36' E 120°18'0 0.1
2016-Jul-24 23:32N 22°36' E 120°18'5 4.9
2016-Jul-24 22:33N 22°37' E 120°12'0 0.1
2016-Jul-24 21:30N 22°37' E 120°12'0 0.1
2016-Jul-24 20:24N 22°37' E 120°12'0 0.1
2016-Jul-24 19:30N 22°37' E 120°12'0 0.0
2016-Jul-24 18:18N 22°37' E 120°12'0 0.1
2016-Jul-24 16:30N 22°37' E 120°12'0 0.0
2016-Jul-24 15:30N 22°37' E 120°12'0 0.0
2016-Jul-24 14:30N 22°37' E 120°12'0 0.1
2016-Jul-24 13:24N 22°37' E 120°13'0 0.0
2016-Jul-24 12:30N 22°37' E 120°13'0 0.0
2016-Jul-24 10:30N 22°37' E 120°13'0 0.0
2016-Jul-24 09:30N 22°37' E 120°13'0 0.1
2016-Jul-24 08:24N 22°37' E 120°12'0 0.1
2016-Jul-24 07:30N 22°37' E 120°13'0 0.2
2016-Jul-24 06:30N 22°37' E 120°12'0 0.1
2016-Jul-24 05:30N 22°37' E 120°12'0 0.0
2016-Jul-24 04:30N 22°37' E 120°12'0 0.1
2016-Jul-24 03:30N 22°37' E 120°12'0 0.0
2016-Jul-24 02:30N 22°37' E 120°12'3 3.3
2016-Jul-24 01:33N 22°39' E 120°10'6911.2
2016-Jul-23 19:25N 23°47' E 119°57'1011.3
2016-Jul-23 18:33N 23°55' E 120°03'1312.0
2016-Jul-23 17:31N 24°05' E 120°11'1110.9
2016-Jul-23 16:31N 24°14' E 120°18'1410.8
2016-Jul-23 15:12N 24°25' E 120°27'911.0
2016-Jul-23 14:22N 24°33' E 120°33'  
2016-Jul-20 00:10N 33°55' E 134°55'812.8
2016-Jul-19 23:30N 34°03' E 134°58'1111.2
2016-Jul-19 22:33N 34°13' E 135°03'4 3.5
2016-Jul-19 21:32N 34°14' E 135°07'0 0.0
2016-Jul-19 20:26N 34°14' E 135°07'0 0.0
2016-Jul-19 19:29N 34°14' E 135°07'0 0.0
2016-Jul-19 18:29N 34°14' E 135°07'0 0.0
2016-Jul-19 17:32N 34°14' E 135°07'0 0.0
2016-Jul-19 16:32N 34°14' E 135°07'0 0.0
2016-Jul-19 15:32N 34°14' E 135°07'0 0.0
2016-Jul-19 14:32N 34°14' E 135°07'0 0.0
2016-Jul-19 13:26N 34°14' E 135°07'0 0.0
2016-Jul-19 12:32N 34°14' E 135°07'0 0.0
2016-Jul-19 11:26N 34°14' E 135°07'0 0.0
2016-Jul-19 10:32N 34°14' E 135°07'0 0.0
2016-Jul-19 09:32N 34°14' E 135°07'0 0.0
2016-Jul-19 08:32N 34°14' E 135°07'0 0.0
2016-Jul-19 07:32N 34°14' E 135°07'0 0.0
2016-Jul-19 06:32N 34°14' E 135°07'0 0.0
2016-Jul-19 04:32N 34°14' E 135°07'0 0.0
2016-Jul-19 03:32N 34°14' E 135°07'0 0.0
2016-Jul-19 02:32N 34°14' E 135°07'0 0.0
2016-Jul-19 01:32N 34°14' E 135°07'0 0.0
2016-Jul-19 00:32N 34°14' E 135°07'0 0.0
2016-Jul-18 23:32N 34°14' E 135°07'0 0.0
2016-Jul-18 22:32N 34°14' E 135°07'0 0.0
2016-Jul-18 21:32N 34°14' E 135°07'0 0.0
2016-Jul-18 20:20N 34°14' E 135°07'0 0.0
2016-Jul-18 19:32N 34°14' E 135°07'0 0.0
2016-Jul-18 18:32N 34°14' E 135°07'0 0.0
2016-Jul-18 17:32N 34°14' E 135°07'0 0.0
2016-Jul-18 16:32N 34°14' E 135°07'0 0.0
2016-Jul-18 15:32N 34°14' E 135°07'0 0.0
2016-Jul-18 14:23N 34°14' E 135°07'0 0.0
2016-Jul-18 13:29N 34°14' E 135°07'0 0.0
2016-Jul-18 12:32N 34°14' E 135°07'0 0.0
2016-Jul-18 11:32N 34°14' E 135°07'0 0.0
2016-Jul-18 10:32N 34°14' E 135°07'0 0.0
2016-Jul-18 09:32N 34°14' E 135°07'0 0.0
2016-Jul-18 08:32N 34°14' E 135°07'0 0.0
2016-Jul-18 07:32N 34°14' E 135°07'0 0.0
2016-Jul-18 06:32N 34°14' E 135°07'0 0.0
2016-Jul-18 05:32N 34°14' E 135°07'0 0.0
2016-Jul-18 04:32N 34°14' E 135°07'0 0.0
2016-Jul-18 03:14N 34°14' E 135°07'0 0.0
2016-Jul-18 02:32N 34°14' E 135°07'0 0.0
2016-Jul-18 01:32N 34°14' E 135°07'0 0.0
2016-Jul-18 00:32N 34°14' E 135°07'0 0.0
2016-Jul-17 23:32N 34°14' E 135°07'0 0.0
2016-Jul-17 22:32N 34°14' E 135°07'0 0.0
2016-Jul-17 21:32N 34°14' E 135°07'0 0.0
2016-Jul-17 20:32N 34°14' E 135°07'0 0.0
2016-Jul-17 19:32N 34°14' E 135°07'0 0.0
2016-Jul-17 18:32N 34°14' E 135°07'0 0.0
2016-Jul-17 17:32N 34°14' E 135°07'0 0.0
2016-Jul-17 16:32N 34°14' E 135°07'0 0.0
2016-Jul-17 15:32N 34°14' E 135°07'0 0.0
2016-Jul-17 14:32N 34°14' E 135°07'0 0.0
2016-Jul-17 13:32N 34°14' E 135°07'0 0.0
2016-Jul-17 12:32N 34°14' E 135°07'0 0.0
2016-Jul-17 11:26N 34°14' E 135°07'0 0.0
2016-Jul-17 10:32N 34°14' E 135°07'0 0.0
2016-Jul-17 09:32N 34°14' E 135°07'0 0.0
2016-Jul-17 08:32N 34°14' E 135°07'0 0.0
2016-Jul-17 07:26N 34°14' E 135°07'0 0.0
2016-Jul-17 06:32N 34°14' E 135°07'0 0.0
2016-Jul-17 04:32N 34°14' E 135°07'0 0.0
2016-Jul-17 03:29N 34°14' E 135°07'0 0.0
2016-Jul-17 02:32N 34°14' E 135°07'0 0.0
2016-Jul-17 01:32N 34°14' E 135°07'0 0.0
2016-Jul-17 00:32N 34°14' E 135°07'0 0.0
2016-Jul-16 23:29N 34°14' E 135°07'2 2.6
2016-Jul-16 22:34N 34°13' E 135°05'9 9.3
2016-Jul-16 21:34N 34°05' E 135°01'  

Dump ship's entire track history